createdAt,value
2018-09-29T00:01:32.836Z,11.80
2018-09-29T00:03:36.022Z,14.15
2018-09-29T00:05:39.972Z,8.33
2018-09-29T00:07:43.519Z,13.18
2018-09-29T00:09:47.300Z,12.00
2018-09-29T00:11:50.500Z,12.07
2018-09-29T00:13:53.672Z,9.80
2018-09-29T00:15:56.893Z,10.60
2018-09-29T00:18:00.541Z,10.88
2018-09-29T00:20:04.321Z,10.00
2018-09-29T00:22:08.192Z,12.95
2018-09-29T00:24:12.089Z,14.07
2018-09-29T00:26:15.556Z,12.25
2018-09-29T00:28:18.744Z,10.70
2018-09-29T00:30:22.390Z,13.00
2018-09-29T00:32:25.856Z,15.60
2018-09-29T00:34:29.025Z,13.00
2018-09-29T00:36:32.850Z,10.00
2018-09-29T00:38:36.033Z,13.03
2018-09-29T00:40:39.565Z,13.63
2018-09-29T00:42:43.096Z,11.17
2018-09-29T00:44:46.581Z,10.85
2018-09-29T00:46:50.080Z,16.07
2018-09-29T00:48:53.569Z,10.80
2018-09-29T00:50:57.012Z,14.73
2018-09-29T00:53:00.215Z,13.33
2018-09-29T00:55:03.440Z,11.80
2018-09-29T00:57:07.394Z,17.57
2018-09-29T00:59:10.583Z,12.53
2018-09-29T01:01:13.791Z,13.00
2018-09-29T01:03:17.255Z,10.98
2018-09-29T01:05:20.686Z,8.23
2018-09-29T01:07:24.212Z,11.22
2018-09-29T01:09:27.673Z,13.38
2018-09-29T01:11:31.057Z,12.25
2018-09-29T01:13:34.576Z,18.40
2018-09-29T01:15:38.362Z,12.13
2018-09-29T01:17:41.851Z,13.90
2018-09-29T01:19:45.311Z,16.05
2018-09-29T01:21:48.730Z,5.70
2018-09-29T01:23:51.896Z,9.60
2018-09-29T01:25:55.450Z,7.50
2018-09-29T01:27:59.064Z,8.33
2018-09-29T01:30:02.812Z,6.55
2018-09-29T01:32:06.530Z,9.68
2018-09-29T01:34:10.246Z,11.12
2018-09-29T01:36:14.141Z,14.75
2018-09-29T01:38:17.330Z,12.13
2018-09-29T01:40:21.257Z,12.88
2018-09-29T01:42:24.682Z,14.28
2018-09-29T01:44:27.882Z,12.50
2018-09-29T01:46:31.358Z,10.82
2018-09-29T01:48:34.826Z,8.03
2018-09-29T01:50:38.000Z,12.88
2018-09-29T01:52:41.192Z,12.10
2018-09-29T01:54:44.387Z,14.90
2018-09-29T01:56:48.152Z,16.07
2018-09-29T01:58:51.628Z,10.50
2018-09-29T02:00:55.453Z,11.68
2018-09-29T02:03:03.153Z,10.30
2018-09-29T02:05:06.944Z,9.10
2018-09-29T02:07:10.124Z,11.18
2018-09-29T02:09:13.329Z,9.30
2018-09-29T02:11:16.929Z,8.30
2018-09-29T02:13:20.388Z,12.25
2018-09-29T02:15:23.854Z,10.05
2018-09-29T02:17:27.067Z,12.00
2018-09-29T02:19:30.536Z,12.50
2018-09-29T02:21:34.207Z,11.83
2018-09-29T02:23:37.627Z,12.13
2018-09-29T02:25:41.205Z,12.40
2018-09-29T02:27:44.745Z,11.83
2018-09-29T02:29:48.212Z,13.43
2018-09-29T02:31:51.746Z,14.73
2018-09-29T02:33:55.125Z,8.77
2018-09-29T02:35:58.833Z,7.67
2018-09-29T02:38:02.898Z,13.13
2018-09-29T02:40:06.384Z,14.95
2018-09-29T02:42:09.587Z,11.40
2018-09-29T02:44:13.296Z,11.95
2018-09-29T02:46:17.277Z,9.80
2018-09-29T02:48:20.793Z,13.43
2018-09-29T02:50:24.624Z,10.53
2018-09-29T02:52:28.132Z,15.30
2018-09-29T02:54:31.705Z,11.55
2018-09-29T02:56:35.595Z,12.95
2018-09-29T02:58:38.803Z,13.53
2018-09-29T03:00:42.470Z,13.05
2018-09-29T03:02:46.124Z,15.70
2018-09-29T03:04:49.798Z,10.93
2018-09-29T03:06:53.764Z,11.05
2018-09-29T03:08:57.264Z,9.83
2018-09-29T03:11:00.493Z,13.98
2018-09-29T03:13:04.267Z,12.82
2018-09-29T03:15:08.245Z,9.75
2018-09-29T03:17:11.806Z,14.28
2018-09-29T03:19:15.344Z,13.93
2018-09-29T03:21:18.993Z,11.45
2018-09-29T03:23:22.493Z,8.95
2018-09-29T03:25:25.965Z,12.80
2018-09-29T03:27:29.448Z,12.98
2018-09-29T03:29:32.637Z,13.78
2018-09-29T03:31:36.063Z,16.10
2018-09-29T03:33:39.725Z,13.30
2018-09-29T03:35:43.205Z,12.45
2018-09-29T03:37:47.273Z,9.45
2018-09-29T03:39:50.476Z,13.83
2018-09-29T03:41:53.669Z,12.13
2018-09-29T03:43:57.225Z,13.13
2018-09-29T03:46:00.964Z,9.48
2018-09-29T03:48:04.434Z,9.20
2018-09-29T03:50:08.228Z,13.28
2018-09-29T03:52:12.030Z,13.60
2018-09-29T03:54:15.457Z,9.35
2018-09-29T03:56:18.649Z,14.30
2018-09-29T03:58:22.356Z,12.75
2018-09-29T04:00:25.831Z,15.80
2018-09-29T04:02:29.013Z,8.13
2018-09-29T04:04:32.213Z,14.47
2018-09-29T04:06:35.752Z,13.10
2018-09-29T04:08:39.797Z,18.20
2018-09-29T04:10:43.504Z,8.73
2018-09-29T04:12:47.297Z,13.13
2018-09-29T04:14:50.756Z,13.18
2018-09-29T04:16:53.957Z,12.28
2018-09-29T04:18:57.159Z,10.33
2018-09-29T04:21:00.351Z,11.00
2018-09-29T04:23:03.856Z,9.23
2018-09-29T04:25:07.354Z,12.03
2018-09-29T04:27:10.524Z,11.18
2018-09-29T04:29:16.801Z,12.13
2018-09-29T04:31:20.037Z,11.03
2018-09-29T04:33:23.355Z,13.47
2018-09-29T04:35:26.956Z,11.00
2018-09-29T04:37:30.435Z,13.53
2018-09-29T04:39:33.688Z,10.43
2018-09-29T04:41:37.976Z,11.18
2018-09-29T04:43:41.552Z,8.63
2018-09-29T04:45:45.005Z,10.43
2018-09-29T04:47:48.249Z,9.10
2018-09-29T04:49:51.740Z,8.33
2018-09-29T04:51:55.188Z,11.88
2018-09-29T04:53:59.360Z,9.05
2018-09-29T04:56:02.821Z,10.43
2018-09-29T04:58:06.281Z,9.53
2018-09-29T05:00:09.762Z,10.32
2018-09-29T05:02:13.209Z,5.33
2018-09-29T05:04:16.757Z,12.33
2018-09-29T05:06:20.653Z,12.33
2018-09-29T05:08:24.028Z,10.20
2018-09-29T05:10:27.237Z,11.53
2018-09-29T05:12:30.720Z,11.28
2018-09-29T05:14:34.184Z,10.08
2018-09-29T05:16:38.008Z,7.40
2018-09-29T05:18:41.470Z,8.20
2018-09-29T05:20:45.399Z,7.75
2018-09-29T05:22:48.904Z,10.18
2018-09-29T05:24:52.092Z,14.47
2018-09-29T05:26:55.305Z,13.75
2018-09-29T05:28:59.080Z,11.83
2018-09-29T05:31:02.645Z,6.87
2018-09-29T05:33:06.324Z,6.85
2018-09-29T05:35:09.942Z,7.28
2018-09-29T05:37:13.168Z,10.68
2018-09-29T05:39:16.419Z,8.10
2018-09-29T05:41:19.595Z,12.67
2018-09-29T05:43:22.803Z,11.17
2018-09-29T05:45:26.264Z,14.50
2018-09-29T05:47:29.720Z,14.83
2018-09-29T05:49:33.208Z,10.48
2018-09-29T05:51:36.444Z,7.77
2018-09-29T05:53:39.912Z,13.08
2018-09-29T05:55:43.684Z,15.03
2018-09-29T05:57:46.880Z,18.23
2018-09-29T05:59:50.367Z,17.52
2018-09-29T06:01:53.966Z,11.45
2018-09-29T06:03:57.192Z,12.50
2018-09-29T06:06:00.388Z,12.80
2018-09-29T06:08:03.581Z,13.83
2018-09-29T06:10:08.571Z,6.80
2018-09-29T06:12:12.376Z,10.43
2018-09-29T06:14:15.844Z,11.33
2018-09-29T06:16:19.476Z,11.45
2018-09-29T06:18:23.399Z,11.63
2018-09-29T06:20:27.172Z,7.87
2018-09-29T06:22:30.690Z,7.58
2018-09-29T06:24:34.370Z,9.95
2018-09-29T06:26:37.992Z,9.95
2018-09-29T06:28:41.508Z,7.78
2018-09-29T06:30:45.148Z,9.35
2018-09-29T06:32:48.376Z,6.33
2018-09-29T06:34:52.176Z,6.58
2018-09-29T06:36:55.418Z,9.60
2018-09-29T06:38:58.760Z,11.90
2018-09-29T06:41:01.935Z,9.63
2018-09-29T06:43:05.916Z,6.40
2018-09-29T06:45:09.109Z,9.30
2018-09-29T06:47:12.310Z,9.88
2018-09-29T06:49:15.524Z,8.50
2018-09-29T06:51:18.734Z,8.60
2018-09-29T06:53:21.916Z,8.37
2018-09-29T06:55:25.609Z,9.90
2018-09-29T06:57:29.244Z,7.20
2018-09-29T06:59:32.420Z,5.30
2018-09-29T07:01:35.684Z,7.23
2018-09-29T07:03:39.142Z,6.37
2018-09-29T07:05:43.059Z,7.65
2018-09-29T07:07:46.536Z,6.05
2018-09-29T07:09:50.217Z,10.03
2018-09-29T07:11:53.420Z,10.00
2018-09-29T07:13:56.684Z,6.27
2018-09-29T07:16:00.496Z,7.87
2018-09-29T07:18:04.251Z,11.03
2018-09-29T07:20:08.240Z,5.75
2018-09-29T07:22:11.786Z,7.33
2018-09-29T07:24:15.275Z,9.85
2018-09-29T07:26:18.539Z,13.08
2018-09-29T07:28:21.728Z,8.67
2018-09-29T07:30:24.916Z,7.60
2018-09-29T07:32:28.477Z,8.30
2018-09-29T07:34:31.926Z,8.08
2018-09-29T07:36:35.287Z,13.20
2018-09-29T07:38:38.988Z,7.83
2018-09-29T07:40:42.500Z,8.10
2018-09-29T07:42:45.712Z,13.20
2018-09-29T07:44:48.978Z,13.27
2018-09-29T07:46:52.449Z,9.30
2018-09-29T07:48:55.968Z,6.62
2018-09-29T07:50:59.447Z,10.32
2018-09-29T07:53:02.748Z,5.77
2018-09-29T07:55:06.556Z,7.47
2018-09-29T07:57:10.036Z,12.23
2018-09-29T07:59:13.595Z,9.53
2018-09-29T08:01:17.501Z,6.78
2018-09-29T08:03:20.984Z,6.90
2018-09-29T08:05:24.546Z,7.40
2018-09-29T08:07:28.380Z,8.28
2018-09-29T08:09:31.856Z,5.42
2018-09-29T08:11:35.384Z,5.15
2018-09-29T08:13:38.592Z,5.90
2018-09-29T08:15:41.773Z,7.00
2018-09-29T08:17:45.064Z,8.57
2018-09-29T08:19:48.300Z,8.80
2018-09-29T08:21:51.989Z,4.97
2018-09-29T08:23:55.576Z,6.58
2018-09-29T08:25:58.756Z,9.10
2018-09-29T08:28:01.936Z,5.35
2018-09-29T08:30:05.677Z,6.80
2018-09-29T08:32:09.528Z,6.50
2018-09-29T08:34:13.156Z,6.00
2018-09-29T08:36:23.941Z,10.35
2018-09-29T08:38:27.416Z,6.80
2018-09-29T08:40:31.209Z,3.55
2018-09-29T08:42:34.984Z,6.30
2018-09-29T08:44:38.757Z,6.25
2018-09-29T08:46:42.295Z,6.20
2018-09-29T08:48:45.954Z,8.33
2018-09-29T08:50:49.780Z,5.35
2018-09-29T08:52:53.303Z,4.95
2018-09-29T08:54:56.832Z,7.80
2018-09-29T08:57:00.036Z,5.90
2018-09-29T08:59:03.374Z,11.20
2018-09-29T09:01:07.129Z,5.40
2018-09-29T09:03:10.493Z,10.40
2018-09-29T09:05:13.676Z,6.33
2018-09-29T09:07:16.936Z,9.13
2018-09-29T09:09:20.151Z,4.27
2018-09-29T09:11:23.957Z,4.97
2018-09-29T09:13:27.808Z,3.47
2018-09-29T09:15:31.297Z,10.95
2018-09-29T09:17:34.837Z,8.45
2018-09-29T09:19:38.060Z,6.83
2018-09-29T09:21:41.681Z,6.67
2018-09-29T09:23:45.354Z,8.70
2018-09-29T09:25:49.189Z,5.80
2018-09-29T09:27:52.845Z,5.78
2018-09-29T09:29:56.102Z,10.50
2018-09-29T09:31:59.715Z,7.40
2018-09-29T09:34:03.377Z,8.38
2018-09-29T09:36:07.352Z,7.85
2018-09-29T09:38:11.160Z,4.62
2018-09-29T09:40:15.089Z,7.22
2018-09-29T09:42:18.788Z,5.62
2018-09-29T09:44:22.328Z,4.47
2018-09-29T09:46:25.817Z,11.85
2018-09-29T09:48:29.000Z,7.80
2018-09-29T09:50:32.383Z,5.70
2018-09-29T09:52:35.861Z,8.00
2018-09-29T09:54:39.329Z,5.15
2018-09-29T09:56:43.136Z,6.90
2018-09-29T09:58:46.600Z,5.90
2018-09-29T10:00:55.315Z,9.68
2018-09-29T10:03:04.661Z,6.45
2018-09-29T10:05:08.299Z,6.23
2018-09-29T10:07:11.733Z,3.00
2018-09-29T10:09:15.237Z,4.85
2018-09-29T10:11:18.491Z,9.73
2018-09-29T10:13:21.685Z,6.40
2018-09-29T10:15:25.234Z,6.10
2018-09-29T10:17:28.745Z,4.37
2018-09-29T10:19:33.059Z,5.85
2018-09-29T10:21:36.512Z,4.30
2018-09-29T10:23:39.720Z,7.12
2018-09-29T10:25:43.604Z,10.82
2018-09-29T10:27:47.068Z,4.37
2018-09-29T10:29:50.433Z,7.80
2018-09-29T10:31:54.287Z,10.18
2018-09-29T10:33:58.107Z,5.70
2018-09-29T10:36:01.304Z,4.37
2018-09-29T10:38:04.511Z,6.10
2018-09-29T10:40:08.103Z,11.40
2018-09-29T10:42:11.614Z,7.58
2018-09-29T10:44:15.157Z,4.40
2018-09-29T10:46:18.565Z,5.80
2018-09-29T10:48:21.816Z,8.70
2018-09-29T10:50:25.000Z,7.87
2018-09-29T10:52:28.299Z,3.67
2018-09-29T10:54:31.545Z,3.55
2018-09-29T10:56:35.110Z,7.87
2018-09-29T10:58:38.746Z,4.35
2018-09-29T11:00:42.221Z,7.20
2018-09-29T11:02:45.741Z,7.45
2018-09-29T11:04:49.508Z,6.47
2018-09-29T11:06:53.228Z,8.95
2018-09-29T11:08:56.700Z,6.40
2018-09-29T11:11:00.208Z,4.90
2018-09-29T11:13:03.798Z,5.95
2018-09-29T11:15:07.547Z,12.78
2018-09-29T11:17:11.121Z,7.25
2018-09-29T11:19:14.574Z,6.07
2018-09-29T11:21:17.773Z,7.07
2018-09-29T11:23:21.059Z,5.60
2018-09-29T11:25:25.080Z,5.60
2018-09-29T11:27:29.552Z,5.50
2018-09-29T11:29:32.729Z,5.33
2018-09-29T11:31:36.716Z,4.65
2018-09-29T11:33:40.181Z,7.40
2018-09-29T11:35:43.439Z,8.10
2018-09-29T11:37:46.633Z,3.27
2018-09-29T11:39:50.162Z,7.07
2018-09-29T11:41:53.732Z,2.72
2018-09-29T11:43:57.864Z,5.05
2018-09-29T11:46:01.316Z,4.45
2018-09-29T11:48:04.957Z,6.75
2018-09-29T11:50:08.531Z,6.80
2018-09-29T11:52:12.084Z,4.78
2018-09-29T11:54:15.935Z,7.33
2018-09-29T11:56:19.463Z,16.40
2018-09-29T11:58:23.092Z,5.08
2018-09-29T12:00:26.536Z,2.77
2018-09-29T12:02:30.107Z,7.23
2018-09-29T12:04:33.892Z,4.53
2018-09-29T12:06:37.108Z,5.45
2018-09-29T12:08:40.494Z,6.33
2018-09-29T12:10:46.280Z,26.82
2018-09-29T12:12:50.290Z,8.85
2018-09-29T12:14:53.973Z,14.95
2018-09-29T12:16:58.205Z,9.43
2018-09-29T12:21:12.271Z,8.75
2018-09-29T12:23:16.101Z,6.60
2018-09-29T12:25:19.918Z,6.40
2018-09-29T12:27:24.921Z,8.28
2018-09-29T12:29:27.320Z,4.35
2018-09-29T12:31:30.661Z,5.80
2018-09-29T12:33:34.208Z,3.53
2018-09-29T12:35:37.404Z,1.87
2018-09-29T12:37:40.644Z,3.03
2018-09-29T12:39:44.284Z,3.63
2018-09-29T12:41:47.468Z,1.77
2018-09-29T12:43:50.689Z,5.17
2018-09-29T12:45:53.909Z,1.83
2018-09-29T12:47:57.122Z,4.53
2018-09-29T12:50:00.700Z,3.50
2018-09-29T12:52:04.120Z,2.97
2018-09-29T12:54:07.896Z,2.80
2018-09-29T12:56:11.121Z,6.93
2018-09-29T12:58:14.512Z,23.07
2018-09-29T13:00:18.089Z,3.73
2018-09-29T13:02:21.478Z,3.37
2018-09-29T13:04:24.684Z,4.20
2018-09-29T13:06:28.573Z,1.50
2018-09-29T13:08:31.829Z,6.17
2018-09-29T13:10:35.588Z,5.33
2018-09-29T13:12:38.784Z,9.43
2018-09-29T13:14:41.998Z,5.30
2018-09-29T13:16:45.359Z,3.40
2018-09-29T13:18:48.679Z,5.20
2018-09-29T13:20:51.865Z,4.93
2018-09-29T13:22:55.782Z,7.80
2018-09-29T13:24:59.137Z,4.43
2018-09-29T13:27:02.665Z,4.67
2018-09-29T13:29:05.851Z,2.20
2018-09-29T13:31:09.405Z,4.83
2018-09-29T13:33:12.584Z,4.03
2018-09-29T13:35:15.862Z,4.70
2018-09-29T13:37:19.157Z,1.67
2018-09-29T13:39:22.551Z,2.93
2018-09-29T13:41:26.696Z,6.83
2018-09-29T13:43:30.459Z,5.30
2018-09-29T13:45:33.600Z,2.77
2018-09-29T13:47:37.129Z,3.10
2018-09-29T13:49:40.296Z,3.30
2018-09-29T13:51:43.517Z,2.63
2018-09-29T13:53:46.751Z,2.80
2018-09-29T13:55:50.103Z,2.10
2018-09-29T13:57:53.352Z,2.70
2018-09-29T13:59:56.964Z,4.40
2018-09-29T14:02:00.144Z,3.70
2018-09-29T14:04:03.304Z,5.57
2018-09-29T14:06:06.929Z,5.00
2018-09-29T14:08:10.283Z,4.87
2018-09-29T14:10:13.462Z,1.93
2018-09-29T14:12:16.897Z,2.63
2018-09-29T14:14:20.093Z,2.33
2018-09-29T14:16:23.282Z,3.87
2018-09-29T14:18:26.621Z,4.30
2018-09-29T14:20:29.880Z,4.37
2018-09-29T14:22:33.190Z,1.50
2018-09-29T14:24:36.403Z,1.70
2018-09-29T14:26:39.646Z,1.93
2018-09-29T14:28:42.854Z,3.17
2018-09-29T14:30:46.460Z,2.57
2018-09-29T14:32:50.288Z,3.80
2018-09-29T14:34:53.495Z,4.67
2018-09-29T14:36:56.747Z,4.20
2018-09-29T14:39:00.568Z,3.70
2018-09-29T14:41:04.251Z,5.30
2018-09-29T14:43:07.915Z,2.87
2018-09-29T14:45:11.122Z,1.60
2018-09-29T14:47:14.505Z,2.70
2018-09-29T14:49:17.701Z,6.63
2018-09-29T14:51:20.903Z,1.63
2018-09-29T14:53:24.121Z,3.67
2018-09-29T14:55:27.288Z,6.20
2018-09-29T14:57:30.491Z,4.57
2018-09-29T14:59:33.825Z,2.30
2018-09-29T15:01:37.012Z,4.63
2018-09-29T15:03:40.781Z,5.14
2018-09-29T15:05:44.449Z,3.23
2018-09-29T15:07:47.908Z,2.20
2018-09-29T15:09:51.606Z,6.50
2018-09-29T15:11:55.120Z,3.05
2018-09-29T15:13:58.636Z,7.60
2018-09-29T15:16:02.500Z,6.80
2018-09-29T15:18:06.009Z,3.27
2018-09-29T15:20:09.880Z,3.00
2018-09-29T15:22:13.392Z,6.15
2018-09-29T15:24:16.853Z,3.33
2018-09-29T15:26:20.504Z,4.00
2018-09-29T15:28:23.978Z,4.17
2018-09-29T15:30:27.180Z,5.83
2018-09-29T15:32:30.642Z,5.42
2018-09-29T15:34:34.120Z,6.42
2018-09-29T15:36:37.573Z,3.98
2018-09-29T15:38:41.380Z,5.08
2018-09-29T15:40:44.921Z,7.65
2018-09-29T15:42:48.512Z,5.50
2018-09-29T15:44:51.816Z,3.50
2018-09-29T15:46:55.460Z,4.60
2018-09-29T15:48:58.982Z,4.03
2018-09-29T15:51:02.367Z,3.10
2018-09-29T15:53:06.082Z,3.67
2018-09-29T15:55:10.163Z,3.50
2018-09-29T15:57:13.959Z,3.67
2018-09-29T15:59:17.226Z,3.47
2018-09-29T16:01:20.885Z,5.00
2018-09-29T16:03:24.410Z,8.10
2018-09-29T16:05:27.641Z,6.70
2018-09-29T16:07:31.094Z,3.20
2018-09-29T16:09:34.335Z,1.37
2018-09-29T16:11:38.476Z,3.23
2018-09-29T16:13:41.993Z,2.20
2018-09-29T16:15:45.284Z,6.03
2018-09-29T16:17:48.699Z,3.40
2018-09-29T16:19:52.239Z,3.50
2018-09-29T16:21:55.437Z,5.53
2018-09-29T16:23:58.753Z,3.07
2018-09-29T16:26:02.371Z,2.70
2018-09-29T16:28:06.481Z,3.40
2018-09-29T16:30:09.676Z,3.30
2018-09-29T16:32:12.888Z,1.23
2018-09-29T16:34:16.464Z,4.10
2018-09-29T16:36:19.705Z,2.53
2018-09-29T16:38:22.887Z,1.20
2018-09-29T16:40:26.311Z,4.33
2018-09-29T16:42:29.496Z,3.40
2018-09-29T16:44:33.016Z,4.10
2018-09-29T16:46:36.820Z,6.62
2018-09-29T16:48:40.015Z,6.65
2018-09-29T16:50:43.547Z,3.72
2018-09-29T16:52:47.041Z,4.35
2018-09-29T16:54:50.537Z,5.92
2018-09-29T16:56:54.157Z,8.98
2018-09-29T16:58:57.320Z,4.57
2018-09-29T17:01:00.530Z,6.30
2018-09-29T17:03:04.333Z,7.78
2018-09-29T17:05:07.832Z,10.68
2018-09-29T17:07:11.329Z,7.85
2018-09-29T17:09:14.532Z,6.83
2018-09-29T17:11:17.709Z,5.30
2018-09-29T17:13:21.192Z,4.22
2018-09-29T17:15:25.292Z,7.80
2018-09-29T17:17:28.808Z,11.80
2018-09-29T17:19:32.293Z,13.30
2018-09-29T17:21:35.893Z,11.50
2018-09-29T17:23:39.861Z,10.20
2018-09-29T17:25:43.329Z,9.48
2018-09-29T17:27:47.117Z,9.18
2018-09-29T17:29:51.017Z,12.63
2018-09-29T17:31:54.334Z,9.95
2018-09-29T17:33:58.036Z,9.17
2018-09-29T17:36:01.581Z,9.43
2018-09-29T17:38:05.025Z,7.42
2018-09-29T17:40:08.211Z,10.72
2018-09-29T17:42:11.454Z,9.10
2018-09-29T17:44:14.951Z,8.50
2018-09-29T17:46:18.238Z,10.60
2018-09-29T17:48:21.550Z,9.10
2018-09-29T17:50:25.056Z,4.33
2018-09-29T17:52:28.684Z,7.42
2018-09-29T17:54:32.264Z,7.85
2018-09-29T17:56:35.923Z,8.33
2018-09-29T17:58:39.439Z,9.15
2018-09-29T18:00:42.660Z,6.30
2018-09-29T18:02:45.889Z,12.40
2018-09-29T18:04:49.330Z,9.25
2018-09-29T18:06:52.813Z,12.20
2018-09-29T18:08:56.376Z,12.73
2018-09-29T18:11:00.179Z,8.00
2018-09-29T18:13:04.144Z,11.10
2018-09-29T18:15:07.339Z,9.53
2018-09-29T18:17:10.564Z,11.22
2018-09-29T18:19:14.370Z,8.63
2018-09-29T18:21:17.881Z,14.50
2018-09-29T18:23:21.517Z,14.17
2018-09-29T18:25:24.751Z,11.43
2018-09-29T18:27:28.249Z,12.37
2018-09-29T18:29:32.024Z,13.08
2018-09-29T18:31:35.259Z,10.37
2018-09-29T18:33:38.448Z,12.87
2018-09-29T18:35:41.700Z,15.10
2018-09-29T18:37:47.472Z,14.05
2018-09-29T18:39:51.068Z,12.40
2018-09-29T18:41:54.272Z,11.30
2018-09-29T18:43:57.484Z,14.87
2018-09-29T18:46:00.673Z,15.93
2018-09-29T18:48:03.881Z,15.78
2018-09-29T18:50:07.252Z,15.18
2018-09-29T18:52:10.512Z,15.67
2018-09-29T18:54:13.714Z,22.80
2018-09-29T18:56:17.300Z,19.57
2018-09-29T18:58:20.791Z,12.85
2018-09-29T19:00:24.256Z,16.05
2018-09-29T19:02:28.239Z,17.03
2018-09-29T19:04:31.735Z,10.85
2018-09-29T19:06:35.720Z,12.28
2018-09-29T19:08:39.523Z,11.63
2018-09-29T19:10:43.403Z,11.65
2018-09-29T19:12:46.639Z,15.90
2018-09-29T19:14:50.296Z,8.33
2018-09-29T19:16:53.790Z,11.95
2018-09-29T19:18:57.236Z,10.20
2018-09-29T19:21:00.525Z,14.30
2018-09-29T19:23:04.045Z,13.20
2018-09-29T19:25:07.540Z,12.82
2018-09-29T19:27:11.521Z,10.48
2018-09-29T19:29:14.993Z,9.40
2018-09-29T19:31:18.485Z,16.32
2018-09-29T19:33:22.072Z,18.77
2018-09-29T19:35:25.581Z,12.37
2018-09-29T19:37:29.154Z,12.98
2018-09-29T19:39:32.705Z,13.47
2018-09-29T19:41:36.708Z,11.22
2018-09-29T19:43:40.238Z,15.50
2018-09-29T19:45:43.814Z,10.80
2018-09-29T19:47:47.642Z,14.07
2018-09-29T19:49:51.105Z,12.70
2018-09-29T19:51:54.996Z,10.20
2018-09-29T19:53:58.490Z,11.60
2018-09-29T19:56:01.991Z,12.40
2018-09-29T19:58:05.444Z,11.37
2018-09-29T20:00:09.122Z,9.55
2018-09-29T20:02:12.688Z,18.15
2018-09-29T20:04:16.519Z,13.95
2018-09-29T20:06:19.994Z,12.30
2018-09-29T20:08:23.366Z,13.43
2018-09-29T20:10:26.909Z,10.90
2018-09-29T20:12:30.364Z,15.35
2018-09-29T20:14:33.556Z,15.38
2018-09-29T20:16:36.800Z,14.33
2018-09-29T20:18:40.189Z,10.80
2018-09-29T20:20:44.271Z,11.43
2018-09-29T20:22:48.096Z,12.75
2018-09-29T20:24:51.656Z,12.15
2018-09-29T20:26:54.844Z,11.97
2018-09-29T20:28:58.441Z,9.17
2018-09-29T20:31:01.913Z,13.08
2018-09-29T20:33:05.404Z,13.78
2018-09-29T20:35:08.620Z,12.03
2018-09-29T20:37:11.886Z,10.10
2018-09-29T20:39:15.628Z,9.95
2018-09-29T20:41:19.964Z,16.27
2018-09-29T20:43:23.292Z,14.98
2018-09-29T20:45:26.649Z,13.30
2018-09-29T20:47:29.851Z,10.50
2018-09-29T20:49:33.948Z,16.45
2018-09-29T20:51:37.896Z,13.38
2018-09-29T20:53:41.122Z,11.57
2018-09-29T20:55:44.480Z,13.27
2018-09-29T20:57:48.213Z,11.03
2018-09-29T20:59:51.684Z,9.53
2018-09-29T21:01:54.888Z,10.80
2018-09-29T21:03:58.104Z,8.55
2018-09-29T21:06:01.920Z,11.30
2018-09-29T21:08:05.708Z,20.37
2018-09-29T21:10:09.577Z,16.40
2018-09-29T21:12:13.880Z,21.60
2018-09-29T21:14:17.324Z,23.97
2018-09-29T21:16:27.431Z,15.98
2018-09-29T21:18:31.688Z,15.28
2018-09-29T21:20:35.515Z,13.62
2018-09-29T21:22:39.017Z,13.15
2018-09-29T21:24:42.536Z,10.03
2018-09-29T21:26:46.352Z,14.80
2018-09-29T21:28:50.012Z,10.15
2018-09-29T21:30:53.572Z,11.40
2018-09-29T21:32:56.814Z,8.20
2018-09-29T21:35:00.026Z,9.70
2018-09-29T21:37:03.545Z,12.70
2018-09-29T21:39:08.100Z,10.28
2018-09-29T21:41:11.577Z,9.18
2018-09-29T21:43:14.780Z,8.23
2018-09-29T21:45:18.007Z,8.47
2018-09-29T21:47:21.575Z,8.50
2018-09-29T21:49:25.076Z,9.50
2018-09-29T21:51:28.816Z,7.77
2018-09-29T21:53:32.761Z,10.25
2018-09-29T21:55:36.401Z,7.83
2018-09-29T21:57:43.482Z,17.35
2018-09-29T21:59:46.941Z,9.70
2018-09-29T22:01:50.401Z,7.75
2018-09-29T22:03:53.629Z,8.67
2018-09-29T22:05:56.903Z,8.67
2018-09-29T22:08:00.380Z,7.67
2018-09-29T22:10:03.854Z,6.55
2018-09-29T22:12:07.335Z,13.45
2018-09-29T22:14:10.620Z,9.13
2018-09-29T22:16:14.424Z,14.10
2018-09-29T22:18:18.612Z,11.08
2018-09-29T22:20:22.004Z,12.40
2018-09-29T22:22:25.200Z,11.60
2018-09-29T22:24:28.506Z,9.37
2018-09-29T22:26:32.524Z,10.72
2018-09-29T22:28:36.037Z,11.10
2018-09-29T22:30:39.488Z,9.75
2018-09-29T22:32:42.897Z,10.78
2018-09-29T22:34:46.480Z,9.45
2018-09-29T22:36:49.923Z,9.65
2018-09-29T22:38:53.400Z,11.78
2018-09-29T22:40:56.744Z,11.85
2018-09-29T22:42:59.959Z,9.30
2018-09-29T22:45:03.146Z,11.40
2018-09-29T22:47:06.825Z,8.40
2018-09-29T22:49:10.293Z,9.98
2018-09-29T22:51:13.460Z,9.20
2018-09-29T22:53:16.721Z,13.00
2018-09-29T22:55:19.919Z,10.10
2018-09-29T22:57:24.200Z,6.87
2018-09-29T22:59:27.874Z,12.80
2018-09-29T23:01:31.320Z,10.40
2018-09-29T23:03:34.913Z,7.83
2018-09-29T23:05:38.542Z,11.15
2018-09-29T23:07:42.328Z,7.70
2018-09-29T23:09:46.024Z,10.10
2018-09-29T23:11:49.555Z,10.38
2018-09-29T23:13:53.379Z,8.15
2018-09-29T23:15:56.609Z,10.38
2018-09-29T23:18:00.745Z,10.23
2018-09-29T23:20:04.491Z,7.35
2018-09-29T23:22:07.929Z,9.90
2018-09-29T23:24:11.158Z,10.32
2018-09-29T23:26:14.324Z,7.55
2018-09-29T23:28:17.844Z,8.80
2018-09-29T23:30:21.374Z,12.37
2018-09-29T23:32:24.825Z,9.95
2018-09-29T23:34:28.032Z,10.68
2018-09-29T23:36:31.769Z,10.90
2018-09-29T23:38:42.028Z,9.30
2018-09-29T23:40:45.570Z,9.90
2018-09-29T23:42:49.660Z,6.33
2018-09-29T23:44:53.197Z,6.20
2018-09-29T23:46:56.972Z,8.95
2018-09-29T23:49:00.692Z,9.25
2018-09-29T23:51:04.148Z,7.60
2018-09-29T23:53:07.609Z,9.63
2018-09-29T23:55:11.514Z,7.93
2018-09-29T23:57:15.319Z,8.60
2018-09-29T23:59:18.793Z,9.75
